createdAt,value
2018-05-14T00:00:07.438Z,26.00
2018-05-14T00:02:37.101Z,25.37
2018-05-14T00:05:06.691Z,26.30
2018-05-14T00:07:36.314Z,27.03
2018-05-14T00:10:05.631Z,25.70
2018-05-14T00:12:38.765Z,26.83
2018-05-14T00:15:10.369Z,26.93
2018-05-14T00:17:38.754Z,27.13
2018-05-14T00:20:06.253Z,28.53
2018-05-14T00:22:33.967Z,29.07
2018-05-14T00:25:01.487Z,29.50
2018-05-14T00:27:30.118Z,29.37
2018-05-14T00:29:58.811Z,28.50
2018-05-14T00:32:26.565Z,28.53
2018-05-14T00:34:54.083Z,28.93
2018-05-14T00:37:22.713Z,29.77
2018-05-14T00:39:58.725Z,30.77
2018-05-14T00:42:30.225Z,29.87
2018-05-14T00:44:58.889Z,30.23
2018-05-14T00:47:38.057Z,30.80
2018-05-14T00:50:06.965Z,29.00
2018-05-14T00:52:36.655Z,30.50
2018-05-14T00:55:17.039Z,31.73
2018-05-14T00:57:49.687Z,31.33
2018-05-14T01:00:32.149Z,32.93
2018-05-14T01:03:03.877Z,32.03
2018-05-14T01:05:31.413Z,32.57
2018-05-14T01:08:00.094Z,33.23
2018-05-14T01:10:28.781Z,33.83
2018-05-14T01:12:56.316Z,33.43
2018-05-14T01:15:24.025Z,35.03
2018-05-14T01:17:52.679Z,36.50
2018-05-14T01:20:24.139Z,34.27
2018-05-14T01:22:56.807Z,34.77
2018-05-14T01:25:34.405Z,35.50
2018-05-14T01:28:03.154Z,34.83
2018-05-14T01:30:32.737Z,37.00
2018-05-14T01:33:01.435Z,35.93
2018-05-14T01:35:35.579Z,35.60
2018-05-14T01:38:03.883Z,38.13
2018-05-14T01:40:33.611Z,36.20
2018-05-14T01:43:01.124Z,37.57
2018-05-14T01:45:29.464Z,34.93
2018-05-14T01:47:56.962Z,38.97
2018-05-14T01:50:28.038Z,37.47
2018-05-14T01:52:57.661Z,38.63
2018-05-14T01:55:26.349Z,38.33
2018-05-14T01:57:55.973Z,38.47
2018-05-14T02:00:31.200Z,39.60
2018-05-14T02:03:03.477Z,41.83
2018-05-14T02:05:31.828Z,39.07
2018-05-14T02:08:11.902Z,38.80
2018-05-14T02:10:41.194Z,37.77
2018-05-14T02:13:15.728Z,41.40
2018-05-14T02:15:43.238Z,40.33
2018-05-14T02:18:12.469Z,39.93
2018-05-14T02:20:52.792Z,39.60
2018-05-14T02:23:23.056Z,41.00
2018-05-14T02:25:50.580Z,42.87
2018-05-14T02:28:22.596Z,42.07
2018-05-14T02:30:51.278Z,42.07
2018-05-14T02:33:25.607Z,43.27
2018-05-14T02:35:54.176Z,45.03
2018-05-14T02:38:21.687Z,46.30
2018-05-14T02:40:53.103Z,46.07
2018-05-14T02:43:23.925Z,43.87
2018-05-14T02:45:51.438Z,44.53
2018-05-14T02:48:23.777Z,42.53
2018-05-14T02:50:51.314Z,41.80
2018-05-14T02:53:18.990Z,42.27
2018-05-14T02:55:51.949Z,43.10
2018-05-14T02:58:23.754Z,45.87
2018-05-14T03:00:56.748Z,44.90
2018-05-14T03:03:24.494Z,44.03
2018-05-14T03:05:54.087Z,43.73
2018-05-14T03:08:26.185Z,42.43
2018-05-14T03:10:53.922Z,45.70
2018-05-14T03:13:22.877Z,45.43
2018-05-14T03:15:52.562Z,45.10
2018-05-14T03:18:24.019Z,46.77
2018-05-14T03:20:53.589Z,48.23
2018-05-14T03:23:25.901Z,49.80
2018-05-14T03:25:53.417Z,46.80
2018-05-14T03:28:20.954Z,48.60
2018-05-14T03:30:50.523Z,50.40
2018-05-14T03:33:19.206Z,45.93
2018-05-14T03:35:48.784Z,48.50
2018-05-14T03:38:27.936Z,49.00
2018-05-14T03:40:59.057Z,51.73
2018-05-14T03:43:27.746Z,50.83
2018-05-14T03:46:01.078Z,53.63
2018-05-14T03:48:28.805Z,52.60
2018-05-14T03:51:06.696Z,54.70
2018-05-14T03:53:40.581Z,50.30
2018-05-14T03:59:16.031Z,54.33
2018-05-14T04:01:58.468Z,50.93
2018-05-14T04:04:37.864Z,53.40
2018-05-14T04:07:11.613Z,50.93
2018-05-14T04:09:42.497Z,52.83
2018-05-14T04:12:19.445Z,53.13
2018-05-14T04:15:01.636Z,49.97
2018-05-14T04:17:30.345Z,49.93
2018-05-14T04:20:01.225Z,53.20
2018-05-14T04:22:28.967Z,52.27
2018-05-14T04:25:00.110Z,51.23
2018-05-14T04:27:33.416Z,51.00
2018-05-14T04:30:00.952Z,52.77
2018-05-14T04:32:28.630Z,50.80
2018-05-14T04:34:56.205Z,51.13
2018-05-14T04:37:26.653Z,52.80
2018-05-14T04:39:54.397Z,51.10
2018-05-14T04:42:23.109Z,52.03
2018-05-14T04:44:54.535Z,49.50
2018-05-14T04:47:24.154Z,47.30
2018-05-14T04:49:52.825Z,47.27
2018-05-14T04:52:31.932Z,48.30
2018-05-14T04:55:00.691Z,47.63
2018-05-14T04:57:28.411Z,44.87
2018-05-14T05:00:01.083Z,43.27
2018-05-14T05:02:31.941Z,43.17
2018-05-14T05:04:59.723Z,44.17
2018-05-14T05:07:27.465Z,38.50
2018-05-14T05:09:55.228Z,43.83
2018-05-14T05:12:28.788Z,42.10
2018-05-14T05:14:57.531Z,42.83
2018-05-14T05:17:27.129Z,44.57
2018-05-14T05:19:57.401Z,42.00
2018-05-14T05:22:36.194Z,40.33
2018-05-14T05:25:03.934Z,40.90
2018-05-14T05:27:35.374Z,41.93
2018-05-14T05:30:04.086Z,42.53
2018-05-14T05:32:32.437Z,41.60
2018-05-14T05:35:10.934Z,42.10
2018-05-14T05:37:38.490Z,42.03
2018-05-14T05:40:17.275Z,41.67
2018-05-14T05:42:53.261Z,39.93
2018-05-14T05:45:37.923Z,40.40
2018-05-14T05:48:10.940Z,40.50
2018-05-14T05:50:39.652Z,42.53
2018-05-14T05:53:08.320Z,42.83
2018-05-14T05:55:37.963Z,39.43
2018-05-14T05:58:06.616Z,40.73
2018-05-14T06:00:51.232Z,41.30
2018-05-14T06:03:20.979Z,40.70
2018-05-14T06:05:48.663Z,40.03
2018-05-14T06:08:17.347Z,40.00
2018-05-14T06:10:46.037Z,39.63
2018-05-14T06:13:22.065Z,39.50
2018-05-14T06:15:51.737Z,38.43
2018-05-14T06:18:30.329Z,38.17
2018-05-14T06:20:58.626Z,37.93
2018-05-14T06:23:26.363Z,36.37
2018-05-14T06:25:53.862Z,36.87
2018-05-14T06:28:24.971Z,34.17
2018-05-14T06:30:53.885Z,34.40
2018-05-14T06:33:24.501Z,32.77
2018-05-14T06:36:00.209Z,34.30
2018-05-14T06:38:28.927Z,35.60
2018-05-14T06:40:57.605Z,35.93
2018-05-14T06:43:27.247Z,34.73
2018-05-14T06:45:56.524Z,34.57
2018-05-14T06:48:24.022Z,36.53
2018-05-14T06:50:51.799Z,33.80
2018-05-14T06:53:24.145Z,34.87
2018-05-14T06:55:58.989Z,33.17
2018-05-14T06:58:27.203Z,33.70
2018-05-14T07:00:54.562Z,32.03
2018-05-14T07:03:22.299Z,31.10
2018-05-14T07:05:51.778Z,31.07
2018-05-14T07:08:19.309Z,31.73
2018-05-14T07:10:51.409Z,31.50
2018-05-14T07:13:36.243Z,29.80
2018-05-14T07:16:03.975Z,28.73
2018-05-14T07:18:33.819Z,27.50
2018-05-14T07:21:09.139Z,26.73
2018-05-14T07:23:38.639Z,26.67
2018-05-14T07:26:08.153Z,26.37
2018-05-14T07:28:36.686Z,26.37
2018-05-14T07:31:05.600Z,26.80
2018-05-14T07:33:34.475Z,27.03
2018-05-14T07:36:02.548Z,26.73
2018-05-14T07:38:32.140Z,27.50
2018-05-14T07:41:00.832Z,26.70
2018-05-14T07:43:30.141Z,27.10
2018-05-14T07:46:01.604Z,24.63
2018-05-14T07:48:34.277Z,25.27
2018-05-14T07:51:01.800Z,25.87
2018-05-14T07:53:29.481Z,25.47
2018-05-14T07:55:58.871Z,25.83
2018-05-14T07:58:28.401Z,25.10
2018-05-14T08:00:56.135Z,24.77
2018-05-14T08:03:25.258Z,25.63
2018-05-14T08:05:53.627Z,25.73
2018-05-14T08:08:21.290Z,24.60
2018-05-14T08:11:01.065Z,25.03
2018-05-14T08:13:28.571Z,26.30
2018-05-14T08:16:00.558Z,25.33
2018-05-14T08:18:29.579Z,25.97
2018-05-14T08:20:57.145Z,25.63
2018-05-14T08:23:30.305Z,27.30
2018-05-14T08:26:05.737Z,23.57
2018-05-14T08:28:34.609Z,26.30
2018-05-14T08:31:03.135Z,27.63
2018-05-14T08:33:36.131Z,27.57
2018-05-14T08:36:07.989Z,26.60
2018-05-14T08:38:35.969Z,26.63
2018-05-14T08:41:07.107Z,25.47
2018-05-14T08:43:48.926Z,26.17
2018-05-14T08:46:16.700Z,25.87
2018-05-14T08:48:46.376Z,26.80
2018-05-14T08:51:18.433Z,26.37
2018-05-14T08:53:48.279Z,26.23
2018-05-14T08:56:18.612Z,26.53
2018-05-14T08:58:50.351Z,27.97
2018-05-14T09:01:18.941Z,27.53
2018-05-14T09:03:48.393Z,28.87
2018-05-14T09:06:16.141Z,26.93
2018-05-14T09:08:43.939Z,28.10
2018-05-14T09:11:11.621Z,27.33
2018-05-14T09:13:39.129Z,29.43
2018-05-14T09:16:07.836Z,28.47
2018-05-14T09:18:36.678Z,28.37
2018-05-14T09:21:06.085Z,27.87
2018-05-14T09:23:48.835Z,30.80
2018-05-14T09:26:20.309Z,30.77
2018-05-14T09:29:05.553Z,30.87
2018-05-14T09:31:33.085Z,29.47
2018-05-14T09:34:00.595Z,30.27
2018-05-14T09:36:32.286Z,28.90
2018-05-14T09:39:03.373Z,28.50
2018-05-14T09:41:31.823Z,29.90
2018-05-14T09:44:05.423Z,28.23
2018-05-14T09:46:34.723Z,26.33
2018-05-14T09:49:02.460Z,29.43
2018-05-14T09:51:31.210Z,31.47
2018-05-14T09:54:02.393Z,29.90
2018-05-14T09:56:37.845Z,30.40
2018-05-14T09:59:15.317Z,28.03
2018-05-14T10:01:48.946Z,29.07
2018-05-14T10:04:16.698Z,28.63
2018-05-14T10:06:45.796Z,29.37
2018-05-14T10:09:15.736Z,29.20
2018-05-14T10:11:45.546Z,29.00
2018-05-14T10:14:13.044Z,29.70
2018-05-14T10:16:40.754Z,28.17
2018-05-14T10:19:10.387Z,27.47
2018-05-14T10:21:38.844Z,27.97
2018-05-14T10:24:07.535Z,28.03
2018-05-14T10:26:38.275Z,28.60
2018-05-14T10:29:07.897Z,29.93
2018-05-14T10:31:38.352Z,31.07
2018-05-14T10:34:08.061Z,32.47
2018-05-14T10:36:36.083Z,31.07
2018-05-14T10:39:03.703Z,32.10
2018-05-14T10:41:35.405Z,31.33
2018-05-14T10:44:03.329Z,32.83
2018-05-14T10:46:32.082Z,31.97
2018-05-14T10:49:01.720Z,31.77
2018-05-14T10:51:30.371Z,31.87
2018-05-14T10:54:01.223Z,32.00
2018-05-14T10:56:28.857Z,31.00
2018-05-14T10:59:02.936Z,31.63
2018-05-14T11:01:30.663Z,34.20
2018-05-14T11:03:59.523Z,32.53
2018-05-14T11:06:28.061Z,32.53
2018-05-14T11:08:56.745Z,33.17
2018-05-14T11:11:27.963Z,34.10
2018-05-14T11:13:56.704Z,33.00
2018-05-14T11:16:26.659Z,33.03
2018-05-14T11:19:00.975Z,33.60
2018-05-14T11:21:34.285Z,33.33
2018-05-14T11:24:05.160Z,34.00
2018-05-14T11:26:37.425Z,33.23
2018-05-14T11:29:04.945Z,33.93
2018-05-14T11:31:38.237Z,34.37
2018-05-14T11:34:11.241Z,33.63
2018-05-14T11:36:40.857Z,34.70
2018-05-14T11:39:10.443Z,34.13
2018-05-14T11:41:45.910Z,33.47
2018-05-14T11:44:18.276Z,33.87
2018-05-14T11:46:45.816Z,34.87
2018-05-14T11:49:37.864Z,34.60
2018-05-14T11:52:06.461Z,34.27
2018-05-14T11:54:40.046Z,33.57
2018-05-14T11:57:10.194Z,35.23
2018-05-14T11:59:56.835Z,33.87
2018-05-14T12:02:26.523Z,36.77
2018-05-14T12:04:56.769Z,33.90
2018-05-14T12:07:26.246Z,33.03
2018-05-14T12:09:54.616Z,34.53
2018-05-14T12:12:25.232Z,34.93
2018-05-14T12:15:00.854Z,31.80
2018-05-14T12:17:28.374Z,31.13
2018-05-14T12:19:58.067Z,28.93
2018-05-14T12:22:25.712Z,29.27
2018-05-14T12:24:54.426Z,27.37
2018-05-14T12:27:29.522Z,24.80
2018-05-14T12:29:59.176Z,25.87
2018-05-14T12:32:35.180Z,26.17
2018-05-14T12:35:10.200Z,28.10
2018-05-14T12:37:38.885Z,26.37
2018-05-14T12:40:06.919Z,26.27
2018-05-14T12:42:38.280Z,26.33
2018-05-14T12:45:07.088Z,26.07
2018-05-14T12:47:35.685Z,25.33
2018-05-14T12:50:04.276Z,26.83
2018-05-14T12:52:32.739Z,26.80
2018-05-14T12:55:00.462Z,25.00
2018-05-14T12:57:27.959Z,25.20
2018-05-14T12:59:55.704Z,26.13
2018-05-14T13:02:24.996Z,26.37
2018-05-14T13:04:56.462Z,27.07
2018-05-14T13:07:23.996Z,28.33
2018-05-14T13:09:51.675Z,26.10
2018-05-14T13:12:19.200Z,27.17
2018-05-14T13:14:47.837Z,26.77
2018-05-14T13:17:16.190Z,27.53
2018-05-14T13:19:44.890Z,26.47
2018-05-14T13:22:31.011Z,26.07
2018-05-14T13:25:18.580Z,28.03
2018-05-14T13:27:47.205Z,27.10
2018-05-14T13:30:28.115Z,25.50
2018-05-14T13:32:55.640Z,22.97
2018-05-14T13:35:28.645Z,23.40
2018-05-14T13:37:57.416Z,22.90
2018-05-14T13:40:24.816Z,22.53
2018-05-14T13:42:52.628Z,22.10
2018-05-14T13:45:21.899Z,21.37
2018-05-14T13:47:50.549Z,21.33
2018-05-14T13:50:36.987Z,21.00
2018-05-14T13:53:23.770Z,21.63
2018-05-14T13:55:56.520Z,20.83
2018-05-14T13:58:35.285Z,19.03
2018-05-14T14:01:03.735Z,18.77
2018-05-14T14:03:35.779Z,19.30
2018-05-14T14:06:17.005Z,19.40
2018-05-14T14:08:44.564Z,18.83
2018-05-14T14:11:16.313Z,18.07
2018-05-14T14:13:49.289Z,19.47
2018-05-14T14:16:21.360Z,19.83
2018-05-14T14:18:54.929Z,18.40
2018-05-14T14:21:41.680Z,16.83
2018-05-14T14:24:10.181Z,19.37
2018-05-14T14:26:50.416Z,18.27
2018-05-14T14:29:23.817Z,17.30
2018-05-14T14:31:56.489Z,18.53
2018-05-14T14:34:26.167Z,19.23
2018-05-14T14:37:00.863Z,18.37
2018-05-14T14:39:30.639Z,18.50
2018-05-14T14:42:09.436Z,18.27
2018-05-14T14:44:42.351Z,17.77
2018-05-14T14:47:27.255Z,17.67
2018-05-14T14:50:00.599Z,19.07
2018-05-14T14:52:30.285Z,18.77
2018-05-14T14:54:58.083Z,17.93
2018-05-14T14:57:37.091Z,17.77
2018-05-14T15:00:08.552Z,18.73
2018-05-14T15:02:50.102Z,19.03
2018-05-14T15:05:20.070Z,18.83
2018-05-14T15:07:48.757Z,19.40
2018-05-14T15:10:17.436Z,19.07
2018-05-14T15:13:02.968Z,18.77
2018-05-14T15:15:31.423Z,19.67
2018-05-14T15:18:03.193Z,18.30
2018-05-14T15:20:31.161Z,19.17
2018-05-14T15:22:58.711Z,18.47
2018-05-14T15:25:32.263Z,18.37
2018-05-14T15:28:06.074Z,17.27
2018-05-14T15:30:33.679Z,15.93
2018-05-14T15:33:14.943Z,15.50
2018-05-14T15:35:46.416Z,15.67
2018-05-14T15:38:18.496Z,14.20
2018-05-14T15:40:52.063Z,14.03
2018-05-14T15:43:33.585Z,13.37
2018-05-14T15:46:05.442Z,13.90
2018-05-14T15:48:32.984Z,13.20
2018-05-14T15:51:04.958Z,12.80
2018-05-14T15:53:35.171Z,12.50
2018-05-14T15:56:02.751Z,12.60
2018-05-14T15:58:41.423Z,11.27
2018-05-14T16:01:11.075Z,10.80
2018-05-14T16:06:32.111Z,10.80
2018-05-14T16:09:10.882Z,10.80
2018-05-14T16:11:50.629Z,10.83
2018-05-14T16:14:28.230Z,10.90
2018-05-14T16:16:59.415Z,10.73
2018-05-14T16:19:28.099Z,10.63
2018-05-14T16:22:00.160Z,11.40
2018-05-14T16:24:30.733Z,10.07
2018-05-14T16:27:02.162Z,9.60
2018-05-14T16:29:33.007Z,9.43
2018-05-14T16:32:04.730Z,8.87
2018-05-14T16:34:32.254Z,8.70
2018-05-14T16:37:00.894Z,8.50
2018-05-14T16:39:28.398Z,8.77
2018-05-14T16:41:56.128Z,8.23
2018-05-14T16:44:23.625Z,8.93
2018-05-14T16:46:51.311Z,8.43
2018-05-14T16:49:22.482Z,8.87
2018-05-14T16:51:52.136Z,8.20
2018-05-14T16:54:20.754Z,8.67
2018-05-14T16:56:48.266Z,8.37
2018-05-14T16:59:19.709Z,8.83
2018-05-14T17:01:50.516Z,8.33
2018-05-14T17:04:19.237Z,8.77
2018-05-14T17:06:51.283Z,8.00
2018-05-14T17:09:18.791Z,8.67
2018-05-14T17:11:47.144Z,8.30
2018-05-14T17:14:14.890Z,8.53
2018-05-14T17:16:48.199Z,8.30
2018-05-14T17:19:21.493Z,8.07
2018-05-14T17:21:54.172Z,8.03
2018-05-14T17:24:22.522Z,8.37
2018-05-14T17:26:50.034Z,8.23
2018-05-14T17:29:21.760Z,7.93
2018-05-14T17:31:50.492Z,7.60
2018-05-14T17:34:19.119Z,7.90
2018-05-14T17:36:48.729Z,8.37
2018-05-14T17:39:22.347Z,7.70
2018-05-14T17:41:51.025Z,7.60
2018-05-14T17:44:20.644Z,7.67
2018-05-14T17:46:49.016Z,7.37
2018-05-14T17:49:24.154Z,7.83
2018-05-14T17:52:02.038Z,6.97
2018-05-14T17:54:33.271Z,7.03
2018-05-14T17:57:02.829Z,7.70
2018-05-14T17:59:36.875Z,6.70
2018-05-14T18:02:08.224Z,7.13
2018-05-14T18:04:36.908Z,7.20
2018-05-14T18:07:05.255Z,6.70
2018-05-14T18:09:36.738Z,6.67
2018-05-14T18:12:14.264Z,6.60
2018-05-14T18:14:46.347Z,7.13
2018-05-14T18:17:15.992Z,6.47
2018-05-14T18:19:51.274Z,6.37
2018-05-14T18:22:26.102Z,8.07
2018-05-14T18:25:01.589Z,7.97
2018-05-14T18:27:33.778Z,7.20
2018-05-14T18:30:08.175Z,6.83
2018-05-14T18:32:36.689Z,7.90
2018-05-14T18:35:10.004Z,7.60
2018-05-14T18:37:44.856Z,7.73
2018-05-14T18:40:16.226Z,7.70
2018-05-14T18:42:43.852Z,8.70
2018-05-14T18:45:30.551Z,7.07
2018-05-14T18:48:01.642Z,7.40
2018-05-14T18:50:31.275Z,7.23
2018-05-14T18:52:59.967Z,7.03
2018-05-14T18:55:28.650Z,7.63
2018-05-14T18:57:58.305Z,7.23
2018-05-14T19:00:32.439Z,14.17
2018-05-14T19:02:59.934Z,7.17
2018-05-14T19:05:32.017Z,7.63
2018-05-14T19:08:03.737Z,8.20
2018-05-14T19:10:41.139Z,8.07
2018-05-14T19:13:10.684Z,8.17
2018-05-14T19:15:44.175Z,7.70
2018-05-14T19:18:15.477Z,8.27
2018-05-14T19:20:43.305Z,7.73
2018-05-14T19:23:22.315Z,7.37
2018-05-14T19:25:53.748Z,8.63
2018-05-14T19:28:32.391Z,7.53
2018-05-14T19:31:00.051Z,7.97
2018-05-14T19:33:34.709Z,7.47
2018-05-14T19:36:05.776Z,7.87
2018-05-14T19:38:33.481Z,7.67
2018-05-14T19:41:01.237Z,7.93
2018-05-14T19:43:29.975Z,8.23
2018-05-14T19:45:58.620Z,8.33
2018-05-14T19:48:28.219Z,8.27
2018-05-14T19:50:55.798Z,14.10
2018-05-14T19:53:23.442Z,8.43
2018-05-14T19:55:53.147Z,8.87
2018-05-14T19:58:23.568Z,8.50
2018-05-14T20:00:52.310Z,8.50
2018-05-14T20:03:20.045Z,8.10
2018-05-14T20:05:48.709Z,8.73
2018-05-14T20:08:22.936Z,8.70
2018-05-14T20:10:54.988Z,9.10
2018-05-14T20:13:27.090Z,9.70
2018-05-14T20:15:54.840Z,9.57
2018-05-14T20:18:23.206Z,10.50
2018-05-14T20:20:53.018Z,10.43
2018-05-14T20:23:21.547Z,10.00
2018-05-14T20:25:50.203Z,10.10
2018-05-14T20:28:21.039Z,10.93
2018-05-14T20:30:53.481Z,10.10
2018-05-14T20:33:24.266Z,10.70
2018-05-14T20:35:52.012Z,11.07
2018-05-14T20:38:19.539Z,10.90
2018-05-14T20:40:47.265Z,10.93
2018-05-14T20:43:27.604Z,11.30
2018-05-14T20:46:01.540Z,11.50
2018-05-14T20:48:47.505Z,11.17
2018-05-14T20:51:22.216Z,10.30
2018-05-14T20:53:54.602Z,11.03
2018-05-14T20:56:22.128Z,9.93
2018-05-14T20:58:49.818Z,10.30
2018-05-14T21:01:22.864Z,10.40
2018-05-14T21:03:50.629Z,10.93
2018-05-14T21:06:21.755Z,10.80
2018-05-14T21:08:51.368Z,11.40
2018-05-14T21:11:22.515Z,12.63
2018-05-14T21:13:56.412Z,12.67
2018-05-14T21:16:25.077Z,13.40
2018-05-14T21:18:53.430Z,13.63
2018-05-14T21:21:22.146Z,14.00
2018-05-14T21:23:53.272Z,15.37
2018-05-14T21:26:24.115Z,14.33
2018-05-14T21:28:57.700Z,15.50
2018-05-14T21:31:38.392Z,15.73
2018-05-14T21:36:59.169Z,15.93
2018-05-14T21:39:27.104Z,16.23
2018-05-14T21:41:55.549Z,16.13
2018-05-14T21:44:23.069Z,16.77
2018-05-14T21:46:51.403Z,16.77
2018-05-14T21:49:24.085Z,17.10
2018-05-14T21:51:57.679Z,17.67
2018-05-14T21:54:25.187Z,17.47
2018-05-14T21:57:00.578Z,17.57
2018-05-14T21:59:31.739Z,17.80
2018-05-14T22:02:04.772Z,17.93
2018-05-14T22:04:32.486Z,19.30
2018-05-14T22:07:07.056Z,19.43
2018-05-14T22:09:35.457Z,19.90
2018-05-14T22:12:02.938Z,20.30
2018-05-14T22:14:30.646Z,21.93
2018-05-14T22:16:58.408Z,21.73
2018-05-14T22:19:27.052Z,22.03
2018-05-14T22:21:58.530Z,21.97
2018-05-14T22:24:40.036Z,22.93
2018-05-14T22:27:07.598Z,23.60
2018-05-14T22:29:36.258Z,23.47
2018-05-14T22:32:07.115Z,24.03
2018-05-14T22:34:35.784Z,24.30
2018-05-14T22:37:10.906Z,23.50
2018-05-14T22:39:42.362Z,24.37
2018-05-14T22:42:13.581Z,23.00
2018-05-14T22:44:43.122Z,23.50
2018-05-14T22:47:17.026Z,22.40
2018-05-14T22:49:54.904Z,22.47
2018-05-14T22:52:23.650Z,21.83
2018-05-14T22:54:51.998Z,22.17
2018-05-14T22:57:20.698Z,20.97
2018-05-14T22:59:48.236Z,21.30
2018-05-14T23:02:15.906Z,18.90
2018-05-14T23:04:43.412Z,20.50
2018-05-14T23:07:11.158Z,19.80
2018-05-14T23:09:41.384Z,19.17
2018-05-14T23:12:15.286Z,18.53
2018-05-14T23:14:48.847Z,17.93
2018-05-14T23:17:21.260Z,17.63
2018-05-14T23:20:08.124Z,18.00
2018-05-14T23:22:41.496Z,17.23
2018-05-14T23:25:09.134Z,17.83
2018-05-14T23:27:37.487Z,17.77
2018-05-14T23:30:11.714Z,17.33
2018-05-14T23:32:46.520Z,17.50
2018-05-14T23:35:15.263Z,17.77
2018-05-14T23:37:46.678Z,17.60
2018-05-14T23:40:14.196Z,17.53
2018-05-14T23:42:42.870Z,17.67
2018-05-14T23:45:13.692Z,17.83
2018-05-14T23:47:48.509Z,16.97
2018-05-14T23:50:29.106Z,16.57
2018-05-14T23:53:03.380Z,16.43
2018-05-14T23:55:44.036Z,17.43
2018-05-14T23:58:15.498Z,17.27
